sensor_id;sensor_type;location;lat;lon;timestamp;pressure;altitude;pressure_sealevel;temperature;humidity
84352;BME280;75904;43.524;1.518;2024-02-26T00:01:21;98414.41;;;8.84;87.53
84352;BME280;75904;43.524;1.518;2024-02-26T00:03:46;98409.13;;;8.91;87.24
84352;BME280;75904;43.524;1.518;2024-02-26T00:06:12;98407.28;;;8.91;87.19
84352;BME280;75904;43.524;1.518;2024-02-26T00:08:37;98403.94;;;8.89;87.37
84352;BME280;75904;43.524;1.518;2024-02-26T00:11:03;98406.44;;;8.91;85.97
84352;BME280;75904;43.524;1.518;2024-02-26T00:13:28;98395.75;;;8.76;86.88
84352;BME280;75904;43.524;1.518;2024-02-26T00:15:54;98404.91;;;8.67;86.46
84352;BME280;75904;43.524;1.518;2024-02-26T00:18:19;98402.50;;;8.72;86.93
84352;BME280;75904;43.524;1.518;2024-02-26T00:20:44;98390.56;;;8.75;88.32
84352;BME280;75904;43.524;1.518;2024-02-26T00:23:10;98393.06;;;8.76;86.99
84352;BME280;75904;43.524;1.518;2024-02-26T00:25:35;98382.94;;;8.72;86.42
84352;BME280;75904;43.524;1.518;2024-02-26T00:28:03;98381.38;;;8.63;86.76
84352;BME280;75904;43.524;1.518;2024-02-26T00:30:29;98370.19;;;8.59;85.06
84352;BME280;75904;43.524;1.518;2024-02-26T00:32:54;98367.31;;;8.61;85.87
84352;BME280;75904;43.524;1.518;2024-02-26T00:35:19;98357.28;;;8.48;86.22
84352;BME280;75904;43.524;1.518;2024-02-26T00:37:45;98356.81;;;8.44;85.67
84352;BME280;75904;43.524;1.518;2024-02-26T00:40:11;98359.22;;;8.39;85.44
84352;BME280;75904;43.524;1.518;2024-02-26T00:42:36;98357.47;;;8.32;86.13
84352;BME280;75904;43.524;1.518;2024-02-26T00:45:02;98343.97;;;8.25;85.47
84352;BME280;75904;43.524;1.518;2024-02-26T00:47:28;98343.16;;;8.25;86.98
84352;BME280;75904;43.524;1.518;2024-02-26T00:49:53;98338.34;;;8.35;85.65
84352;BME280;75904;43.524;1.518;2024-02-26T00:52:19;98336.91;;;8.32;85.94
84352;BME280;75904;43.524;1.518;2024-02-26T00:54:44;98347.94;;;8.29;85.99
84352;BME280;75904;43.524;1.518;2024-02-26T00:57:09;98331.97;;;8.36;86.40
84352;BME280;75904;43.524;1.518;2024-02-26T00:59:35;98318.13;;;8.47;85.30
84352;BME280;75904;43.524;1.518;2024-02-26T01:02:00;98327.84;;;8.48;85.72
84352;BME280;75904;43.524;1.518;2024-02-26T01:04:27;98321.31;;;8.57;86.79
84352;BME280;75904;43.524;1.518;2024-02-26T01:06:52;98331.41;;;8.55;86.64
84352;BME280;75904;43.524;1.518;2024-02-26T01:09:18;98336.38;;;8.58;86.16
84352;BME280;75904;43.524;1.518;2024-02-26T01:11:44;98335.00;;;8.62;85.46
84352;BME280;75904;43.524;1.518;2024-02-26T01:14:09;98345.97;;;8.67;85.58
84352;BME280;75904;43.524;1.518;2024-02-26T01:16:34;98339.25;;;8.71;84.77
84352;BME280;75904;43.524;1.518;2024-02-26T01:19:00;98339.41;;;8.70;85.71
84352;BME280;75904;43.524;1.518;2024-02-26T01:21:25;98342.09;;;8.70;84.70
84352;BME280;75904;43.524;1.518;2024-02-26T01:23:54;98332.56;;;8.67;85.83
84352;BME280;75904;43.524;1.518;2024-02-26T01:26:19;98326.25;;;8.53;85.94
84352;BME280;75904;43.524;1.518;2024-02-26T01:28:44;98328.28;;;8.37;85.79
84352;BME280;75904;43.524;1.518;2024-02-26T01:31:10;98322.56;;;8.25;87.00
84352;BME280;75904;43.524;1.518;2024-02-26T01:33:36;98317.22;;;8.25;86.31
84352;BME280;75904;43.524;1.518;2024-02-26T01:36:01;98317.84;;;8.12;86.30
84352;BME280;75904;43.524;1.518;2024-02-26T01:38:26;98320.09;;;8.09;86.99
84352;BME280;75904;43.524;1.518;2024-02-26T01:40:52;98313.53;;;8.11;86.24
84352;BME280;75904;43.524;1.518;2024-02-26T01:43:18;98307.72;;;8.08;86.22
84352;BME280;75904;43.524;1.518;2024-02-26T01:45:43;98305.97;;;8.00;86.47
84352;BME280;75904;43.524;1.518;2024-02-26T01:48:08;98302.63;;;7.98;87.65
84352;BME280;75904;43.524;1.518;2024-02-26T01:50:36;98306.44;;;8.04;86.45
84352;BME280;75904;43.524;1.518;2024-02-26T01:53:03;98306.88;;;8.07;85.69
84352;BME280;75904;43.524;1.518;2024-02-26T01:55:28;98310.75;;;7.90;86.03
84352;BME280;75904;43.524;1.518;2024-02-26T01:57:54;98316.56;;;7.94;86.31
84352;BME280;75904;43.524;1.518;2024-02-26T02:00:20;98307.44;;;7.88;86.83
84352;BME280;75904;43.524;1.518;2024-02-26T02:02:46;98305.69;;;7.81;87.11
84352;BME280;75904;43.524;1.518;2024-02-26T02:05:15;98300.69;;;7.92;86.22
84352;BME280;75904;43.524;1.518;2024-02-26T02:07:41;98295.25;;;7.86;85.67
84352;BME280;75904;43.524;1.518;2024-02-26T02:10:07;98305.59;;;7.89;86.63
84352;BME280;75904;43.524;1.518;2024-02-26T02:12:33;98299.78;;;7.85;86.24
84352;BME280;75904;43.524;1.518;2024-02-26T02:15:00;98297.19;;;7.77;86.76
84352;BME280;75904;43.524;1.518;2024-02-26T02:17:26;98289.56;;;7.74;85.67
84352;BME280;75904;43.524;1.518;2024-02-26T02:19:52;98289.91;;;7.71;86.64
84352;BME280;75904;43.524;1.518;2024-02-26T02:22:18;98291.91;;;7.69;86.38
84352;BME280;75904;43.524;1.518;2024-02-26T02:24:43;98295.34;;;7.63;86.60
84352;BME280;75904;43.524;1.518;2024-02-26T02:27:09;98294.75;;;7.53;86.64
84352;BME280;75904;43.524;1.518;2024-02-26T02:29:34;98283.78;;;7.48;87.03
84352;BME280;75904;43.524;1.518;2024-02-26T02:32:01;98293.31;;;7.50;87.07
84352;BME280;75904;43.524;1.518;2024-02-26T02:34:28;98289.50;;;7.45;87.35
84352;BME280;75904;43.524;1.518;2024-02-26T02:36:54;98285.72;;;7.39;86.63
84352;BME280;75904;43.524;1.518;2024-02-26T02:39:20;98281.03;;;7.56;86.40
84352;BME280;75904;43.524;1.518;2024-02-26T02:41:45;98266.09;;;7.47;86.24
84352;BME280;75904;43.524;1.518;2024-02-26T02:44:11;98273.16;;;7.39;85.58
84352;BME280;75904;43.524;1.518;2024-02-26T02:46:37;98266.81;;;7.41;86.12
84352;BME280;75904;43.524;1.518;2024-02-26T02:49:02;98273.44;;;7.45;86.25
84352;BME280;75904;43.524;1.518;2024-02-26T02:51:28;98277.50;;;7.41;86.35
84352;BME280;75904;43.524;1.518;2024-02-26T02:53:53;98270.16;;;7.43;85.40
84352;BME280;75904;43.524;1.518;2024-02-26T02:56:19;98284.97;;;7.45;85.89
84352;BME280;75904;43.524;1.518;2024-02-26T02:58:44;98273.34;;;7.38;86.17
84352;BME280;75904;43.524;1.518;2024-02-26T03:01:10;98276.22;;;7.36;85.66
84352;BME280;75904;43.524;1.518;2024-02-26T03:03:35;98266.56;;;7.50;85.72
84352;BME280;75904;43.524;1.518;2024-02-26T03:06:02;98262.41;;;7.48;86.48
84352;BME280;75904;43.524;1.518;2024-02-26T03:08:28;98268.94;;;7.60;85.55
84352;BME280;75904;43.524;1.518;2024-02-26T03:10:54;98265.16;;;7.54;85.58
84352;BME280;75904;43.524;1.518;2024-02-26T03:13:19;98272.16;;;7.41;85.87
84352;BME280;75904;43.524;1.518;2024-02-26T03:15:45;98270.41;;;7.48;86.42
84352;BME280;75904;43.524;1.518;2024-02-26T03:18:10;98274.19;;;7.53;85.73
84352;BME280;75904;43.524;1.518;2024-02-26T03:20:36;98272.75;;;7.51;86.39
84352;BME280;75904;43.524;1.518;2024-02-26T03:23:02;98267.75;;;7.48;86.22
84352;BME280;75904;43.524;1.518;2024-02-26T03:25:28;98269.75;;;7.46;86.32
84352;BME280;75904;43.524;1.518;2024-02-26T03:27:53;98267.16;;;7.37;86.96
84352;BME280;75904;43.524;1.518;2024-02-26T03:30:18;98269.56;;;7.32;86.48
84352;BME280;75904;43.524;1.518;2024-02-26T03:32:44;98263.22;;;7.33;86.73
84352;BME280;75904;43.524;1.518;2024-02-26T03:35:09;98273.16;;;7.39;86.59
84352;BME280;75904;43.524;1.518;2024-02-26T03:37:34;98266.91;;;7.47;87.48
84352;BME280;75904;43.524;1.518;2024-02-26T03:40:00;98271.16;;;7.56;87.39
84352;BME280;75904;43.524;1.518;2024-02-26T03:42:26;98268.25;;;7.66;86.73
84352;BME280;75904;43.524;1.518;2024-02-26T03:44:52;98272.28;;;7.76;86.48
84352;BME280;75904;43.524;1.518;2024-02-26T03:47:17;98264.16;;;7.85;86.88
84352;BME280;75904;43.524;1.518;2024-02-26T03:49:42;98264.06;;;7.93;87.02
84352;BME280;75904;43.524;1.518;2024-02-26T03:52:08;98262.50;;;7.98;87.75
84352;BME280;75904;43.524;1.518;2024-02-26T03:54:33;98248.66;;;8.09;87.55
84352;BME280;75904;43.524;1.518;2024-02-26T03:56:58;98245.88;;;8.18;87.96
84352;BME280;75904;43.524;1.518;2024-02-26T03:59:24;98258.50;;;8.24;87.56
84352;BME280;75904;43.524;1.518;2024-02-26T04:01:50;98258.13;;;8.27;86.54
84352;BME280;75904;43.524;1.518;2024-02-26T04:04:16;98252.78;;;8.27;86.51
84352;BME280;75904;43.524;1.518;2024-02-26T04:06:47;98268.13;;;8.33;86.85
84352;BME280;75904;43.524;1.518;2024-02-26T04:09:14;98275.13;;;8.34;87.95
84352;BME280;75904;43.524;1.518;2024-02-26T04:11:39;98265.34;;;8.41;86.42
84352;BME280;75904;43.524;1.518;2024-02-26T04:14:05;98265.84;;;8.51;87.50
84352;BME280;75904;43.524;1.518;2024-02-26T04:16:34;98265.47;;;8.54;87.27
84352;BME280;75904;43.524;1.518;2024-02-26T07:49:43;98367.81;;;9.70;78.26
84352;BME280;75904;43.524;1.518;2024-02-26T07:52:09;98374.66;;;9.73;76.93
84352;BME280;75904;43.524;1.518;2024-02-26T07:54:34;98374.72;;;9.80;76.72
84352;BME280;75904;43.524;1.518;2024-02-26T07:56:59;98378.91;;;9.89;77.94
84352;BME280;75904;43.524;1.518;2024-02-26T07:59:25;98390.38;;;10.04;74.70
84352;BME280;75904;43.524;1.518;2024-02-26T08:01:51;98393.00;;;10.19;74.55
84352;BME280;75904;43.524;1.518;2024-02-26T08:04:16;98382.31;;;10.32;73.72
84352;BME280;75904;43.524;1.518;2024-02-26T08:06:42;98382.06;;;11.15;72.26
84352;BME280;75904;43.524;1.518;2024-02-26T08:09:08;98378.75;;;12.52;67.96
84352;BME280;75904;43.524;1.518;2024-02-26T08:11:33;98372.50;;;12.64;67.22
84352;BME280;75904;43.524;1.518;2024-02-26T08:13:59;98359.75;;;14.53;62.80
84352;BME280;75904;43.524;1.518;2024-02-26T08:16:24;98358.19;;;16.07;59.85
84352;BME280;75904;43.524;1.518;2024-02-26T08:18:49;98349.75;;;17.18;58.30
84352;BME280;75904;43.524;1.518;2024-02-26T08:21:15;98338.38;;;18.11;57.20
84352;BME280;75904;43.524;1.518;2024-02-26T08:23:40;98339.25;;;18.17;53.68
84352;BME280;75904;43.524;1.518;2024-02-26T08:26:06;98340.13;;;19.00;52.68
84352;BME280;75904;43.524;1.518;2024-02-26T08:28:32;98340.78;;;19.60;50.99
84352;BME280;75904;43.524;1.518;2024-02-26T08:30:57;98335.59;;;19.91;48.78
84352;BME280;75904;43.524;1.518;2024-02-26T08:33:23;98342.34;;;20.52;50.10
84352;BME280;75904;43.524;1.518;2024-02-26T08:35:48;98348.03;;;21.03;46.93
84352;BME280;75904;43.524;1.518;2024-02-26T08:38:14;98343.00;;;21.67;47.73
84352;BME280;75904;43.524;1.518;2024-02-26T08:40:39;98352.34;;;22.07;48.18
84352;BME280;75904;43.524;1.518;2024-02-26T08:43:05;98350.16;;;22.14;43.48
84352;BME280;75904;43.524;1.518;2024-02-26T08:45:30;98355.63;;;22.19;44.67
84352;BME280;75904;43.524;1.518;2024-02-26T08:47:55;98351.78;;;22.40;44.78
84352;BME280;75904;43.524;1.518;2024-02-26T08:50:21;98355.00;;;22.67;44.30
84352;BME280;75904;43.524;1.518;2024-02-26T08:52:46;98363.75;;;22.85;39.55
84352;BME280;75904;43.524;1.518;2024-02-26T08:55:15;98354.34;;;23.01;40.14
84352;BME280;75904;43.524;1.518;2024-02-26T08:57:40;98354.00;;;23.23;41.57
84352;BME280;75904;43.524;1.518;2024-02-26T09:00:06;98351.41;;;23.41;37.29
84352;BME280;75904;43.524;1.518;2024-02-26T09:02:32;98356.56;;;23.58;40.01
84352;BME280;75904;43.524;1.518;2024-02-26T09:04:57;98346.81;;;23.81;37.36
84352;BME280;75904;43.524;1.518;2024-02-26T09:07:23;98350.31;;;23.86;38.63
84352;BME280;75904;43.524;1.518;2024-02-26T09:09:48;98354.03;;;24.01;36.75
84352;BME280;75904;43.524;1.518;2024-02-26T09:12:13;98362.06;;;23.97;36.57
84352;BME280;75904;43.524;1.518;2024-02-26T09:14:39;98364.09;;;24.20;37.33
84352;BME280;75904;43.524;1.518;2024-02-26T09:17:04;98360.78;;;24.13;36.38
84352;BME280;75904;43.524;1.518;2024-02-26T09:19:31;98369.91;;;23.75;35.32
84352;BME280;75904;43.524;1.518;2024-02-26T09:21:56;98365.75;;;23.77;35.79
84352;BME280;75904;43.524;1.518;2024-02-26T09:24:24;98370.19;;;23.73;33.80
84352;BME280;75904;43.524;1.518;2024-02-26T09:26:49;98361.91;;;23.24;34.80
84352;BME280;75904;43.524;1.518;2024-02-26T09:29:15;98360.50;;;23.37;34.53
84352;BME280;75904;43.524;1.518;2024-02-26T09:31:40;98368.13;;;23.45;35.58
84352;BME280;75904;43.524;1.518;2024-02-26T09:34:07;98363.09;;;23.62;35.30
84352;BME280;75904;43.524;1.518;2024-02-26T09:36:33;98359.63;;;23.90;34.03
84352;BME280;75904;43.524;1.518;2024-02-26T09:38:58;98374.84;;;24.07;34.61
84352;BME280;75904;43.524;1.518;2024-02-26T09:41:27;98367.91;;;24.19;34.21
84352;BME280;75904;43.524;1.518;2024-02-26T09:43:58;98366.78;;;24.25;33.24
84352;BME280;75904;43.524;1.518;2024-02-26T09:46:28;98354.53;;;24.08;31.65
84352;BME280;75904;43.524;1.518;2024-02-26T09:48:53;98362.06;;;23.97;32.01
84352;BME280;75904;43.524;1.518;2024-02-26T09:51:25;98356.28;;;23.54;32.84
84352;BME280;75904;43.524;1.518;2024-02-26T09:53:54;98353.94;;;23.82;33.76
84352;BME280;75904;43.524;1.518;2024-02-26T09:56:20;98353.59;;;24.27;34.19
84352;BME280;75904;43.524;1.518;2024-02-26T09:58:46;98346.16;;;24.57;33.45
84352;BME280;75904;43.524;1.518;2024-02-26T10:01:17;98345.06;;;24.53;32.48
84352;BME280;75904;43.524;1.518;2024-02-26T10:03:43;98340.84;;;24.37;32.50
84352;BME280;75904;43.524;1.518;2024-02-26T10:06:10;98352.84;;;24.46;32.77
84352;BME280;75904;43.524;1.518;2024-02-26T10:08:36;98340.69;;;24.52;32.47
84352;BME280;75904;43.524;1.518;2024-02-26T10:11:06;98332.78;;;24.45;30.26
84352;BME280;75904;43.524;1.518;2024-02-26T10:13:31;98337.69;;;24.19;31.79
84352;BME280;75904;43.524;1.518;2024-02-26T10:15:57;98339.59;;;24.24;31.81
84352;BME280;75904;43.524;1.518;2024-02-26T10:18:24;98335.50;;;24.16;32.13
84352;BME280;75904;43.524;1.518;2024-02-26T10:21:01;98326.78;;;24.09;32.15
84352;BME280;75904;43.524;1.518;2024-02-26T10:23:27;98326.44;;;24.21;31.70
84352;BME280;75904;43.524;1.518;2024-02-26T10:25:56;98330.41;;;23.71;31.54
84352;BME280;75904;43.524;1.518;2024-02-26T10:28:22;98325.84;;;23.56;32.36
84352;BME280;75904;43.524;1.518;2024-02-26T10:30:47;98345.78;;;23.17;32.05
84352;BME280;75904;43.524;1.518;2024-02-26T10:33:13;98323.94;;;23.02;32.49
84352;BME280;75904;43.524;1.518;2024-02-26T10:35:39;98328.38;;;22.88;32.74
84352;BME280;75904;43.524;1.518;2024-02-26T10:38:07;98325.72;;;22.58;34.40
84352;BME280;75904;43.524;1.518;2024-02-26T10:40:32;98327.72;;;22.32;34.83
84352;BME280;75904;43.524;1.518;2024-02-26T10:42:58;98327.69;;;21.91;35.27
84352;BME280;75904;43.524;1.518;2024-02-26T10:45:23;98327.13;;;21.39;35.25
84352;BME280;75904;43.524;1.518;2024-02-26T10:47:49;98331.78;;;20.76;36.17
84352;BME280;75904;43.524;1.518;2024-02-26T10:50:15;98332.56;;;20.24;37.35
84352;BME280;75904;43.524;1.518;2024-02-26T10:52:42;98332.94;;;19.42;38.04
84352;BME280;75904;43.524;1.518;2024-02-26T10:55:08;98336.78;;;18.92;39.44
84352;BME280;75904;43.524;1.518;2024-02-26T10:57:41;98336.16;;;18.47;40.43
84352;BME280;75904;43.524;1.518;2024-02-26T11:00:10;98337.19;;;18.07;42.74
84352;BME280;75904;43.524;1.518;2024-02-26T11:02:38;98333.59;;;17.85;42.33
84352;BME280;75904;43.524;1.518;2024-02-26T11:05:06;98340.72;;;17.74;43.08
84352;BME280;75904;43.524;1.518;2024-02-26T11:07:32;98341.66;;;17.80;43.07
84352;BME280;75904;43.524;1.518;2024-02-26T11:10:00;98337.34;;;17.67;43.46
84352;BME280;75904;43.524;1.518;2024-02-26T11:12:27;98337.34;;;17.51;43.46
84352;BME280;75904;43.524;1.518;2024-02-26T11:14:54;98338.28;;;17.45;43.71
84352;BME280;75904;43.524;1.518;2024-02-26T11:17:22;98345.72;;;17.49;43.21
84352;BME280;75904;43.524;1.518;2024-02-26T11:19:50;98323.16;;;17.49;43.54
84352;BME280;75904;43.524;1.518;2024-02-26T11:22:15;98325.78;;;17.44;44.46
84352;BME280;75904;43.524;1.518;2024-02-26T11:24:41;98346.88;;;17.36;44.20
84352;BME280;75904;43.524;1.518;2024-02-26T11:27:09;98339.78;;;17.35;45.05
84352;BME280;75904;43.524;1.518;2024-02-26T11:29:43;98340.88;;;17.23;44.01
84352;BME280;75904;43.524;1.518;2024-02-26T11:32:10;98342.59;;;17.12;44.85
84352;BME280;75904;43.524;1.518;2024-02-26T11:34:36;98339.44;;;17.03;44.21
84352;BME280;75904;43.524;1.518;2024-02-26T11:37:11;98336.19;;;16.90;43.53
84352;BME280;75904;43.524;1.518;2024-02-26T11:39:39;98335.34;;;16.89;43.40
84352;BME280;75904;43.524;1.518;2024-02-26T11:42:07;98332.28;;;16.86;42.72
84352;BME280;75904;43.524;1.518;2024-02-26T11:44:33;98323.75;;;16.66;43.80
84352;BME280;75904;43.524;1.518;2024-02-26T11:46:59;98332.22;;;16.57;44.62
84352;BME280;75904;43.524;1.518;2024-02-26T11:49:34;98318.41;;;16.59;45.22
84352;BME280;75904;43.524;1.518;2024-02-26T11:52:08;98309.13;;;16.67;45.16
84352;BME280;75904;43.524;1.518;2024-02-26T11:54:48;98312.78;;;16.49;44.36
84352;BME280;75904;43.524;1.518;2024-02-26T12:00:14;98314.41;;;16.73;44.65
84352;BME280;75904;43.524;1.518;2024-02-26T12:02:52;98298.19;;;16.90;44.49
84352;BME280;75904;43.524;1.518;2024-02-26T12:05:26;98294.28;;;16.86;44.22
84352;BME280;75904;43.524;1.518;2024-02-26T12:07:56;98285.00;;;16.82;44.61
84352;BME280;75904;43.524;1.518;2024-02-26T12:10:30;98273.63;;;16.85;44.51
84352;BME280;75904;43.524;1.518;2024-02-26T12:13:05;98265.56;;;16.73;43.91
84352;BME280;75904;43.524;1.518;2024-02-26T12:15:38;98252.00;;;16.73;43.98
84352;BME280;75904;43.524;1.518;2024-02-26T12:18:06;98254.84;;;16.67;45.48
84352;BME280;75904;43.524;1.518;2024-02-26T12:20:31;98252.63;;;16.52;44.94
84352;BME280;75904;43.524;1.518;2024-02-26T12:22:58;98251.22;;;16.61;45.82
84352;BME280;75904;43.524;1.518;2024-02-26T12:25:25;98237.38;;;16.62;44.90
84352;BME280;75904;43.524;1.518;2024-02-26T12:27:51;98250.16;;;16.50;44.30
84352;BME280;75904;43.524;1.518;2024-02-26T12:30:17;98241.41;;;16.48;44.45
84352;BME280;75904;43.524;1.518;2024-02-26T12:32:43;98227.28;;;16.46;45.92
84352;BME280;75904;43.524;1.518;2024-02-26T12:35:08;98234.94;;;16.49;45.97
84352;BME280;75904;43.524;1.518;2024-02-26T12:37:34;98223.03;;;16.50;45.54
84352;BME280;75904;43.524;1.518;2024-02-26T12:40:04;98230.25;;;16.45;45.25
84352;BME280;75904;43.524;1.518;2024-02-26T12:42:32;98215.72;;;16.39;43.68
84352;BME280;75904;43.524;1.518;2024-02-26T12:44:58;98216.22;;;16.36;44.20
84352;BME280;75904;43.524;1.518;2024-02-26T12:47:24;98217.88;;;16.37;45.03
84352;BME280;75904;43.524;1.518;2024-02-26T12:49:49;98216.91;;;16.43;44.68
84352;BME280;75904;43.524;1.518;2024-02-26T12:52:16;98211.72;;;16.42;45.05
84352;BME280;75904;43.524;1.518;2024-02-26T12:54:42;98211.25;;;16.45;45.78
84352;BME280;75904;43.524;1.518;2024-02-26T12:57:08;98217.50;;;16.45;45.09
84352;BME280;75904;43.524;1.518;2024-02-26T12:59:35;98217.75;;;16.44;45.79
84352;BME280;75904;43.524;1.518;2024-02-26T13:02:01;98201.69;;;16.42;45.65
84352;BME280;75904;43.524;1.518;2024-02-26T13:04:29;98193.34;;;16.44;45.06
84352;BME280;75904;43.524;1.518;2024-02-26T13:06:54;98197.69;;;16.45;46.12
84352;BME280;75904;43.524;1.518;2024-02-26T13:09:20;98199.47;;;16.39;45.68
84352;BME280;75904;43.524;1.518;2024-02-26T13:11:53;98198.66;;;16.39;45.56
84352;BME280;75904;43.524;1.518;2024-02-26T13:14:20;98202.75;;;16.41;45.93
84352;BME280;75904;43.524;1.518;2024-02-26T13:16:54;98196.19;;;16.37;45.37
84352;BME280;75904;43.524;1.518;2024-02-26T13:19:20;98189.94;;;16.37;45.68
84352;BME280;75904;43.524;1.518;2024-02-26T13:21:45;98203.38;;;16.32;47.24
84352;BME280;75904;43.524;1.518;2024-02-26T13:24:12;98204.19;;;16.32;46.34
84352;BME280;75904;43.524;1.518;2024-02-26T13:26:38;98195.84;;;16.34;46.19
84352;BME280;75904;43.524;1.518;2024-02-26T13:29:04;98199.59;;;16.33;46.05
84352;BME280;75904;43.524;1.518;2024-02-26T13:31:30;98192.81;;;16.18;45.17
84352;BME280;75904;43.524;1.518;2024-02-26T13:33:55;98189.41;;;16.23;46.01
84352;BME280;75904;43.524;1.518;2024-02-26T13:36:22;98190.34;;;16.17;45.38
84352;BME280;75904;43.524;1.518;2024-02-26T13:38:55;98173.25;;;16.16;46.15
84352;BME280;75904;43.524;1.518;2024-02-26T13:41:23;98174.66;;;16.19;45.86
84352;BME280;75904;43.524;1.518;2024-02-26T13:43:50;98188.31;;;16.24;45.96
84352;BME280;75904;43.524;1.518;2024-02-26T13:46:15;98180.69;;;16.21;46.27
84352;BME280;75904;43.524;1.518;2024-02-26T13:48:42;98183.97;;;16.23;45.63
84352;BME280;75904;43.524;1.518;2024-02-26T13:51:07;98187.25;;;16.25;45.85
84352;BME280;75904;43.524;1.518;2024-02-26T13:53:33;98180.19;;;16.24;45.62
84352;BME280;75904;43.524;1.518;2024-02-26T13:55:58;98182.88;;;16.24;45.74
84352;BME280;75904;43.524;1.518;2024-02-26T13:58:26;98188.66;;;16.27;46.26
84352;BME280;75904;43.524;1.518;2024-02-26T14:00:52;98190.66;;;16.32;46.15
84352;BME280;75904;43.524;1.518;2024-02-26T14:03:20;98173.22;;;16.28;45.07
84352;BME280;75904;43.524;1.518;2024-02-26T14:05:45;98177.09;;;16.32;45.99
84352;BME280;75904;43.524;1.518;2024-02-26T14:08:11;98178.28;;;16.36;46.54
84352;BME280;75904;43.524;1.518;2024-02-26T14:10:36;98177.44;;;16.36;46.59
84352;BME280;75904;43.524;1.518;2024-02-26T14:13:03;98171.19;;;16.35;47.15
84352;BME280;75904;43.524;1.518;2024-02-26T14:15:28;98169.53;;;16.34;46.35
84352;BME280;75904;43.524;1.518;2024-02-26T14:17:54;98159.88;;;16.38;46.87
84352;BME280;75904;43.524;1.518;2024-02-26T14:20:22;98156.66;;;16.41;46.54
84352;BME280;75904;43.524;1.518;2024-02-26T14:22:48;98170.56;;;16.45;45.43
84352;BME280;75904;43.524;1.518;2024-02-26T14:25:14;98166.16;;;16.55;44.92
84352;BME280;75904;43.524;1.518;2024-02-26T14:27:39;98171.81;;;16.66;45.09
84352;BME280;75904;43.524;1.518;2024-02-26T14:30:05;98163.28;;;16.74;44.58
84352;BME280;75904;43.524;1.518;2024-02-26T14:32:31;98171.84;;;16.82;44.68
84352;BME280;75904;43.524;1.518;2024-02-26T14:35:00;98168.56;;;16.97;44.34
84352;BME280;75904;43.524;1.518;2024-02-26T14:37:25;98164.88;;;17.03;44.43
84352;BME280;75904;43.524;1.518;2024-02-26T14:39:51;98177.97;;;17.06;43.66
84352;BME280;75904;43.524;1.518;2024-02-26T14:42:18;98179.09;;;17.10;44.08
84352;BME280;75904;43.524;1.518;2024-02-26T14:44:43;98181.56;;;17.12;42.99
84352;BME280;75904;43.524;1.518;2024-02-26T14:47:09;98186.66;;;17.08;43.69
84352;BME280;75904;43.524;1.518;2024-02-26T14:49:34;98182.88;;;17.09;42.82
84352;BME280;75904;43.524;1.518;2024-02-26T14:52:00;98192.09;;;17.08;42.96
84352;BME280;75904;43.524;1.518;2024-02-26T14:54:25;98190.44;;;17.07;42.87
84352;BME280;75904;43.524;1.518;2024-02-26T14:56:52;98192.00;;;17.03;42.82
84352;BME280;75904;43.524;1.518;2024-02-26T14:59:18;98189.94;;;16.93;43.32
84352;BME280;75904;43.524;1.518;2024-02-26T15:01:43;98182.94;;;16.81;44.09
84352;BME280;75904;43.524;1.518;2024-02-26T15:04:08;98185.28;;;16.60;44.08
84352;BME280;75904;43.524;1.518;2024-02-26T15:06:34;98184.16;;;16.33;44.83
84352;BME280;75904;43.524;1.518;2024-02-26T15:09:00;98195.06;;;16.10;45.40
84352;BME280;75904;43.524;1.518;2024-02-26T15:11:25;98192.16;;;16.00;45.75
84352;BME280;75904;43.524;1.518;2024-02-26T15:13:51;98197.81;;;15.98;46.36
84352;BME280;75904;43.524;1.518;2024-02-26T15:16:20;98200.41;;;16.05;45.69
84352;BME280;75904;43.524;1.518;2024-02-26T15:18:46;98195.91;;;16.10;46.20
84352;BME280;75904;43.524;1.518;2024-02-26T15:21:12;98201.78;;;16.19;46.16
84352;BME280;75904;43.524;1.518;2024-02-26T15:23:38;98205.06;;;16.21;45.78
84352;BME280;75904;43.524;1.518;2024-02-26T15:26:04;98209.91;;;16.19;46.08
84352;BME280;75904;43.524;1.518;2024-02-26T15:28:29;98210.63;;;16.14;46.39
84352;BME280;75904;43.524;1.518;2024-02-26T15:30:54;98213.94;;;16.05;46.52
84352;BME280;75904;43.524;1.518;2024-02-26T15:33:20;98211.13;;;16.00;46.42
84352;BME280;75904;43.524;1.518;2024-02-26T15:35:46;98214.06;;;15.98;46.38
84352;BME280;75904;43.524;1.518;2024-02-26T15:38:11;98210.44;;;15.81;46.55
84352;BME280;75904;43.524;1.518;2024-02-26T15:40:38;98212.81;;;15.66;47.63
84352;BME280;75904;43.524;1.518;2024-02-26T15:43:04;98217.94;;;15.44;48.19
84352;BME280;75904;43.524;1.518;2024-02-26T15:45:29;98221.72;;;15.43;48.17
84352;BME280;75904;43.524;1.518;2024-02-26T15:47:57;98219.59;;;15.45;48.12
84352;BME280;75904;43.524;1.518;2024-02-26T15:50:23;98224.19;;;15.44;47.16
84352;BME280;75904;43.524;1.518;2024-02-26T15:52:48;98230.19;;;15.35;48.02
84352;BME280;75904;43.524;1.518;2024-02-26T15:55:14;98225.00;;;15.22;47.74
84352;BME280;75904;43.524;1.518;2024-02-26T15:57:41;98233.00;;;15.17;48.28
84352;BME280;75904;43.524;1.518;2024-02-26T16:00:07;98246.47;;;15.05;48.30
84352;BME280;75904;43.524;1.518;2024-02-26T16:02:36;98244.09;;;14.97;48.91
84352;BME280;75904;43.524;1.518;2024-02-26T16:05:01;98257.72;;;14.90;49.39
84352;BME280;75904;43.524;1.518;2024-02-26T16:07:32;98261.81;;;14.81;49.88
84352;BME280;75904;43.524;1.518;2024-02-26T16:09:59;98271.88;;;14.74;49.98
84352;BME280;75904;43.524;1.518;2024-02-26T16:12:35;98283.19;;;14.71;50.11
84352;BME280;75904;43.524;1.518;2024-02-26T16:15:02;98275.91;;;14.53;50.10
84352;BME280;75904;43.524;1.518;2024-02-26T16:17:31;98280.22;;;14.43;50.46
84352;BME280;75904;43.524;1.518;2024-02-26T16:19:59;98288.59;;;14.34;50.85
84352;BME280;75904;43.524;1.518;2024-02-26T16:22:25;98289.47;;;14.28;50.51
84352;BME280;75904;43.524;1.518;2024-02-26T16:24:50;98297.91;;;14.20;51.90
84352;BME280;75904;43.524;1.518;2024-02-26T16:27:16;98304.19;;;14.14;51.22
84352;BME280;75904;43.524;1.518;2024-02-26T16:29:41;98310.06;;;14.11;51.95
84352;BME280;75904;43.524;1.518;2024-02-26T16:32:07;98314.50;;;14.06;51.72
84352;BME280;75904;43.524;1.518;2024-02-26T16:34:34;98316.94;;;13.89;52.06